METAR AND TAF INFORMATION
METAR FOR TAPA
ADDS - METARS form results

(0723 UTC 09 July 2020)
Data provider http://aviationweather.gov/metar/data/
 
Forecast for: TAPA (COOLIDGE/ANTIGUA, AG)
Text: TAF TAPA 090500Z 0906/1006 09012KT 9999 SCT023
Forecast period: 0600 UTC 09 July 2020 to 0600 UTC 10 July 2020
Forecast type: FROM: standard forecast or significant change
Winds: from the E (90 degrees) at 14 MPH (12 knots; 6.2 m/s)
Visibility: 6 or more miles 10+ km)
Ceiling: at least 12,000 feet AGL
Clouds: scattered clouds at 2300 feet AGL
Weather: no significant weather forecast for this period

 AIRPORT MAP

 RUNWAY INFORMATION
Runway 07 Runway length 9003 ft Runway width 148 ft
Runway elevation 58 ft Runway displaced threshold 656 ft Runway heading 58
Runway 25 Runway length 9003 ft Runway width 148 ft
Runway elevation 17 ft Runway displaced threshold 0 ft Runway heading 238

 AIRPORT FREQUENCIES
Type APP Name APP Frequency 119.1 MHZ
Type ATIS Name ATIS Frequency 114.5 MHZ
Type GND Name GND Frequency 121.9 MHZ
Type RDO Name ANTIQUA RD Frequency 26.48 MHZ
Type TWR Name TWR Frequency 118.2 MHZ

 AIRPORT NEAR NAVIGATION AIDS
Type VOR-DME Name V C Bird Frequency 114500 KHZ
Type NDB Name V C Bird Frequency 351 KHZ
Type NDB Name V C Bird Frequency 369 KHZ